Time;durP1;ratioP1;P1;durP2;ratioP2;P2;SDS_P1;SDS_P2;PMS_P1;PMS_P2;Temp;Humidity;BMP_temperature;BMP_pressure;BME280_temperature;BME280_humidity;BME280_pressure;Samples;Min_cycle;Max_cycle;Signal;HPM_P1;HPM_P2
2022/12/15 00:41:02;;;;;;;29.27;17.00;;;-4.90;99.90;;;;;;5051855;28;20049;-52
2022/12/15 00:43:29;;;;;;;32.55;19.60;;;-4.90;99.90;;;;;;5050400;28;20532;-53
2022/12/15 00:48:39;;;;;;;31.85;21.10;;;-4.90;99.90;;;;;;5051565;28;20052;-52
2022/12/15 00:51:05;;;;;;;33.72;18.05;;;-4.90;99.90;;;;;;5051461;28;20037;-52
2022/12/15 01:21:07;;;;;;;31.63;17.95;;;-4.90;99.90;;;;;;5049969;28;20045;-54
2022/12/15 01:23:33;;;;;;;33.40;18.35;;;-4.90;99.90;;;;;;5046082;28;20079;-52
2022/12/15 01:25:59;;;;;;;32.33;18.42;;;-4.90;99.90;;;;;;5051153;28;20521;-51
2022/12/15 01:28:25;;;;;;;32.07;17.97;;;-4.80;99.90;;;;;;5050871;28;20044;-54
2022/12/15 01:30:51;;;;;;;32.07;18.07;;;-4.80;99.90;;;;;;5051005;28;20044;-51
2022/12/15 01:33:18;;;;;;;31.15;17.15;;;-4.80;99.90;;;;;;5047731;28;20033;-54
2022/12/15 01:35:43;;;;;;;31.90;18.60;;;-4.90;99.90;;;;;;5050876;28;20033;-53
2022/12/15 01:38:10;;;;;;;27.77;16.60;;;-5.00;99.90;;;;;;5050126;28;20186;-54
2022/12/15 01:40:45;;;;;;;29.38;17.10;;;-5.00;99.90;;;;;;5051088;28;20045;-54
2022/12/15 01:43:17;;;;;;;25.08;16.80;;;-5.00;99.90;;;;;;5048464;28;20481;-54
2022/12/15 01:45:53;;;;;;;29.58;17.95;;;-4.90;99.90;;;;;;5049419;28;20041;-54
2022/12/15 01:48:39;;;;;;;30.40;18.88;;;-4.90;99.90;;;;;;5046307;28;20098;-55
2022/12/15 01:51:13;;;;;;;28.27;18.13;;;-4.80;99.90;;;;;;5050333;28;20041;-54
2022/12/15 01:53:46;;;;;;;28.25;16.60;;;-4.80;99.90;;;;;;5047723;28;20447;-54
2022/12/15 01:56:12;;;;;;;29.05;16.25;;;-4.80;99.90;;;;;;5049233;28;20045;-53
2022/12/15 01:58:42;;;;;;;28.65;18.15;;;-4.80;99.90;;;;;;5050236;28;20040;-54
2022/12/15 02:01:08;;;;;;;27.85;16.75;;;-4.80;99.90;;;;;;5050536;28;20041;-51
2022/12/15 02:03:35;;;;;;;26.05;16.15;;;-4.70;99.90;;;;;;5047496;28;20043;-53
2022/12/15 02:06:01;;;;;;;27.52;16.30;;;-4.70;99.90;;;;;;5049701;28;20041;-50
2022/12/15 02:08:27;;;;;;;;;;;-4.70;99.90;;;;;;5050022;28;20045;-50
2022/12/15 02:11:17;;;;;;;33.05;18.08;;;-4.70;99.90;;;;;;5050708;28;19917;-51
2022/12/15 02:13:56;;;;;;;29.27;16.48;;;-4.70;99.90;;;;;;5048817;28;20044;-51
2022/12/15 02:16:52;;;;;;;32.67;18.13;;;-4.70;99.90;;;;;;5030143;28;20041;-54
2022/12/15 02:19:37;;;;;;;31.45;17.15;;;-4.80;99.90;;;;;;5038751;28;20079;-51
2022/12/15 02:22:31;;;;;;;31.08;17.85;;;-4.80;99.90;;;;;;5050253;28;20033;-54
2022/12/15 02:25:06;;;;;;;26.60;17.02;;;-4.70;99.90;;;;;;5047806;28;20029;-54
2022/12/15 02:28:03;;;;;;;31.85;19.15;;;-4.70;99.90;;;;;;5049322;28;20041;-51
2022/12/15 02:30:36;;;;;;;27.42;16.17;;;-4.70;99.90;;;;;;5045559;28;20063;-50
2022/12/15 02:33:20;;;;;;;27.55;15.45;;;-4.80;99.90;;;;;;5048062;28;20120;-53
2022/12/15 02:36:09;;;;;;;28.42;16.80;;;-4.80;99.90;;;;;;5049607;28;20528;-51
2022/12/15 02:38:38;;;;;;;33.38;16.90;;;-4.90;99.90;;;;;;5049311;28;20051;-54
2022/12/15 02:41:05;;;;;;;29.13;16.23;;;-4.90;99.90;;;;;;5049555;28;20029;-53
2022/12/15 02:43:35;;;;;;;30.00;16.90;;;-4.90;99.90;;;;;;5047947;28;20200;-53
2022/12/15 02:46:10;;;;;;;32.45;17.42;;;-4.90;99.90;;;;;;5049610;28;20126;-51
2022/12/15 02:49:07;;;;;;;29.75;15.57;;;-4.90;99.90;;;;;;5048059;28;20094;-54
2022/12/15 02:51:48;;;;;;;30.10;16.25;;;-4.90;99.90;;;;;;5037985;28;20057;-51
2022/12/15 02:54:45;;;;;;;25.08;14.93;;;-4.90;99.90;;;;;;5048301;28;20030;-52
2022/12/15 02:57:26;;;;;;;31.27;18.05;;;-4.90;99.90;;;;;;5045994;28;20056;-54
2022/12/15 03:00:04;;;;;;;28.38;16.20;;;-4.90;99.90;;;;;;5048545;28;20060;-54
2022/12/15 03:02:33;;;;;;;30.63;18.35;;;-5.00;99.90;;;;;;5038484;28;20479;-54
2022/12/15 03:04:59;;;;;;;26.50;15.65;;;-4.90;99.90;;;;;;5047608;28;20545;-53
2022/12/15 03:07:26;;;;;;;25.42;16.42;;;-4.90;99.90;;;;;;5048343;28;20447;-54
2022/12/15 03:09:58;;;;;;;27.92;17.05;;;-4.90;99.90;;;;;;5049562;28;20033;-54
2022/12/15 03:12:24;;;;;;;26.95;15.38;;;-4.90;99.90;;;;;;5042563;28;20033;-55
2022/12/15 03:14:50;;;;;;;24.90;15.60;;;-5.00;99.90;;;;;;5047208;28;20082;-55
2022/12/15 03:17:15;;;;;;;32.50;18.08;;;-5.00;99.90;;;;;;5047357;28;20130;-55
2022/12/15 03:19:41;;;;;;;28.97;17.67;;;-5.00;99.90;;;;;;5049205;28;20044;-55
2022/12/15 03:22:07;;;;;;;31.60;16.60;;;-4.90;99.90;;;;;;5048584;28;20032;-51
2022/12/15 03:24:32;;;;;;;25.13;16.50;;;-4.90;99.90;;;;;;5048528;28;20075;-50
2022/12/15 03:26:58;;;;;;;26.20;17.70;;;-4.90;99.90;;;;;;5049318;28;20413;-52
2022/12/15 03:29:24;;;;;;;29.43;17.00;;;-4.90;99.90;;;;;;5048270;28;20098;-51
2022/12/15 03:31:49;;;;;;;30.30;18.33;;;-4.90;99.90;;;;;;5049539;28;20068;-53
2022/12/15 03:34:15;;;;;;;29.50;16.67;;;-4.90;99.90;;;;;;5045696;28;20568;-50
2022/12/15 03:36:41;;;;;;;33.95;16.23;;;-4.90;99.90;;;;;;5049223;28;20040;-52
2022/12/15 03:39:06;;;;;;;32.67;16.73;;;-4.90;99.90;;;;;;5048993;28;20643;-54
2022/12/15 03:41:32;;;;;;;28.03;16.27;;;-4.80;99.90;;;;;;5048843;28;20063;-51
2022/12/15 03:43:58;;;;;;;28.03;15.03;;;-4.80;99.90;;;;;;5048195;28;20087;-52
2022/12/15 03:46:24;;;;;;;25.55;15.27;;;-4.80;99.90;;;;;;5084669;28;20116;-50
2022/12/15 03:48:49;;;;;;;29.60;17.07;;;-4.80;99.90;;;;;;5052660;28;20116;-50
2022/12/15 03:51:15;;;;;;;24.13;15.97;;;-4.80;99.90;;;;;;5052859;28;20037;-53
2022/12/15 03:53:41;;;;;;;22.87;15.63;;;-4.80;99.90;;;;;;5051465;28;20033;-53
2022/12/15 03:56:06;;;;;;;24.17;14.97;;;-4.80;99.90;;;;;;5052927;28;20044;-50
2022/12/15 03:58:32;;;;;;;27.70;15.15;;;-4.80;99.90;;;;;;5052444;28;20426;-53
2022/12/15 04:00:57;;;;;;;25.77;13.87;;;-4.80;99.90;;;;;;5052983;28;20037;-53
2022/12/15 04:03:23;;;;;;;24.00;15.10;;;-4.80;99.90;;;;;;5051878;28;20041;-51
2022/12/15 04:05:49;;;;;;;25.00;16.00;;;-4.80;99.90;;;;;;5052551;28;20072;-54
2022/12/15 04:08:14;;;;;;;26.37;16.40;;;-4.80;99.90;;;;;;5052428;28;20076;-52
2022/12/15 04:10:40;;;;;;;24.27;15.67;;;-4.70;99.90;;;;;;5052707;28;20406;-52
2022/12/15 04:13:08;;;;;;;26.93;15.63;;;-4.70;99.90;;;;;;5050718;28;20032;-54
2022/12/15 04:15:35;;;;;;;28.75;16.20;;;-4.70;99.90;;;;;;5052354;28;20181;-54
2022/12/15 04:18:03;;;;;;;26.30;14.65;;;-4.60;99.90;;;;;;5052442;28;20049;-54
2022/12/15 04:20:29;;;;;;;24.80;15.43;;;-4.50;99.90;;;;;;5052131;28;20422;-55
2022/12/15 04:22:54;;;;;;;26.00;16.37;;;-4.40;99.90;;;;;;5050386;28;20041;-51
2022/12/15 05:31:51;;;;;;;25.10;15.38;;;-4.70;99.90;;;;;;5050787;28;20045;-55
2022/12/15 05:34:37;;;;;;;25.25;14.27;;;-4.70;99.90;;;;;;5030304;28;20108;-54
2022/12/15 05:37:04;;;;;;;20.48;13.63;;;-4.80;99.90;;;;;;5049120;28;20048;-55
2022/12/15 05:39:29;;;;;;;27.48;16.88;;;-4.80;99.90;;;;;;5050903;28;20033;-51
2022/12/15 05:41:56;;;;;;;24.98;14.73;;;-4.80;99.90;;;;;;5050852;28;20040;-52
2022/12/15 05:44:22;;;;;;;24.65;14.68;;;-4.70;99.90;;;;;;5049541;28;20132;-54
2022/12/15 05:46:48;;;;;;;;;;;-4.70;99.90;;;;;;5050991;28;20036;-55
2022/12/15 05:49:15;;;;;;;25.85;14.90;;;-4.70;99.90;;;;;;5050002;28;19917;-52
2022/12/15 05:51:43;;;;;;;23.38;14.85;;;-4.60;99.90;;;;;;5051050;28;20108;-55
2022/12/15 05:54:10;;;;;;;23.52;14.50;;;-4.60;99.90;;;;;;5049445;28;20055;-54
2022/12/15 05:56:36;;;;;;;28.58;16.33;;;-4.60;99.90;;;;;;5050427;28;20072;-54
2022/12/15 05:59:03;;;;;;;24.40;14.20;;;-4.60;99.90;;;;;;5049652;28;20029;-53
2022/12/15 06:01:30;;;;;;;;;;;-4.60;99.90;;;;;;5050009;28;20045;-55
2022/12/15 06:03:56;;;;;;;27.42;14.43;;;-4.70;99.90;;;;;;5047385;28;19971;-54
2022/12/15 06:06:22;;;;;;;24.02;14.00;;;-4.70;99.90;;;;;;5049842;28;20041;-54
2022/12/15 06:08:47;;;;;;;26.37;14.70;;;-4.70;99.90;;;;;;5049980;28;20490;-55
2022/12/15 06:11:15;;;;;;;28.40;14.70;;;-4.80;99.90;;;;;;5082217;28;20037;-55
2022/12/15 06:13:41;;;;;;;24.48;15.18;;;-4.80;99.90;;;;;;5049261;28;20116;-53
2022/12/15 06:16:15;;;;;;;27.10;15.98;;;-4.80;99.90;;;;;;5049621;28;20069;-54
2022/12/15 06:18:44;;;;;;;26.05;15.18;;;-4.70;99.90;;;;;;5050080;28;20069;-50
2022/12/15 06:21:16;;;;;;;23.48;14.93;;;-4.70;99.90;;;;;;5049891;28;20051;-51
2022/12/15 06:23:42;;;;;;;25.98;16.73;;;-4.80;99.90;;;;;;5048897;28;20055;-50
2022/12/15 06:26:09;;;;;;;28.52;15.98;;;-4.70;99.90;;;;;;5049875;28;20135;-51
2022/12/15 06:28:34;;;;;;;;;;;-4.70;99.90;;;;;;5049401;28;20521;-50
2022/12/15 06:31:02;;;;;;;26.52;15.35;;;-4.60;99.90;;;;;;5049622;28;19927;-50
2022/12/15 06:33:28;;;;;;;30.52;16.70;;;-4.60;99.90;;;;;;5048529;28;20043;-53
2022/12/15 06:35:54;;;;;;;24.35;14.30;;;-4.70;99.90;;;;;;5049660;28;20510;-51
2022/12/15 06:38:20;;;;;;;26.33;15.52;;;-4.70;99.90;;;;;;5049769;28;20041;-52
2022/12/15 06:40:54;;;;;;;25.90;15.67;;;-4.70;99.90;;;;;;5049899;28;20100;-53
2022/12/15 06:43:19;;;;;;;30.98;17.27;;;-4.70;99.90;;;;;;5048064;28;20537;-52
2022/12/15 06:45:48;;;;;;;27.97;16.67;;;-4.60;99.90;;;;;;5049791;28;20067;-53
2022/12/15 06:48:15;;;;;;;27.30;18.00;;;-4.50;99.90;;;;;;5049003;28;20808;-53
2022/12/15 06:50:40;;;;;;;25.38;16.25;;;-4.40;99.90;;;;;;5049832;28;20421;-54
2022/12/15 06:53:06;;;;;;;25.50;17.17;;;-4.40;99.90;;;;;;5048700;28;20404;-50
2022/12/15 06:55:32;;;;;;;26.05;15.57;;;-4.30;99.90;;;;;;5049544;28;20040;-51
2022/12/15 06:57:57;;;;;;;27.77;16.37;;;-4.30;99.90;;;;;;5049343;28;20053;-52
2022/12/15 07:00:23;;;;;;;29.23;16.17;;;-4.30;99.90;;;;;;5049020;28;20052;-53
2022/12/15 07:02:49;;;;;;;34.47;15.57;;;-4.30;99.90;;;;;;5044133;28;20065;-51
2022/12/15 07:05:14;;;;;;;27.83;16.57;;;-4.30;99.90;;;;;;5046802;28;20061;-50
2022/12/15 07:07:40;;;;;;;25.73;15.45;;;-4.40;99.90;;;;;;5048422;28;20187;-52
2022/12/15 07:10:06;;;;;;;25.93;16.03;;;-4.40;99.90;;;;;;5035124;28;20045;-53
2022/12/15 07:12:32;;;;;;;29.33;15.98;;;-4.40;99.90;;;;;;5030232;28;20366;-55
2022/12/15 07:14:57;;;;;;;26.57;15.83;;;-4.50;99.90;;;;;;5048087;28;20036;-54
2022/12/15 07:17:23;;;;;;;29.03;16.40;;;-4.50;99.90;;;;;;5048252;28;20083;-53
2022/12/15 07:19:48;;;;;;;25.60;15.80;;;-4.50;99.90;;;;;;5052880;28;20064;-51
2022/12/15 07:22:14;;;;;;;30.45;18.20;;;-4.50;99.90;;;;;;5053416;28;20490;-53
2022/12/15 07:24:40;;;;;;;28.40;15.30;;;-4.40;99.90;;;;;;5048922;28;20041;-52
2022/12/15 07:27:05;;;;;;;29.20;15.47;;;-4.40;99.90;;;;;;5052486;28;20091;-55
2022/12/15 07:29:31;;;;;;;28.47;17.83;;;-4.40;99.90;;;;;;5050083;28;20301;-54
2022/12/15 07:31:57;;;;;;;25.57;15.57;;;-4.30;99.90;;;;;;5052748;28;20060;-54
2022/12/15 07:34:22;;;;;;;33.38;16.40;;;-4.30;99.90;;;;;;5052235;28;20037;-53
2022/12/15 07:36:48;;;;;;;26.45;16.48;;;-4.30;99.90;;;;;;5048378;28;20045;-55
2022/12/15 07:39:14;;;;;;;27.47;16.03;;;-4.20;99.90;;;;;;5049460;28;20033;-53
2022/12/15 07:41:40;;;;;;;25.33;16.33;;;-4.20;99.90;;;;;;5051171;28;20083;-50
2022/12/15 07:44:06;;;;;;;22.77;15.37;;;-4.10;99.90;;;;;;5051659;28;20076;-53
2022/12/15 07:46:32;;;;;;;32.53;16.13;;;-4.10;99.90;;;;;;5052341;28;20123;-54
2022/12/15 07:48:58;;;;;;;26.35;15.52;;;-4.00;99.90;;;;;;5052606;28;20122;-55
2022/12/15 07:51:23;;;;;;;30.48;16.02;;;-4.00;99.90;;;;;;5051033;28;20079;-55
2022/12/15 07:53:49;;;;;;;27.17;17.90;;;-4.00;99.90;;;;;;5049210;28;20483;-54
2022/12/15 07:56:16;;;;;;;26.45;15.85;;;-3.90;99.90;;;;;;5051980;28;20096;-51
2022/12/15 07:58:41;;;;;;;29.55;17.98;;;-3.80;99.90;;;;;;5052421;28;20037;-50
2022/12/15 08:01:11;;;;;;;26.20;16.20;;;-3.70;99.90;;;;;;5052101;28;20041;-52
2022/12/15 08:03:37;;;;;;;26.92;15.95;;;-3.70;99.90;;;;;;5051451;28;20045;-51
2022/12/15 08:06:04;;;;;;;;;;;-3.60;99.90;;;;;;5052404;28;20053;-52
2022/12/15 08:08:30;;;;;;;24.13;14.63;;;-3.50;99.90;;;;;;5051343;28;19968;-53
2022/12/15 08:10:55;;;;;;;26.70;15.90;;;-3.40;99.90;;;;;;5052410;28;20041;-51
2022/12/15 08:13:21;;;;;;;22.90;13.03;;;-3.30;99.90;;;;;;5049690;28;20044;-54
2022/12/15 08:15:51;;;;;;;23.77;13.93;;;-3.20;99.90;;;;;;5051645;28;20041;-51
2022/12/15 08:18:16;;;;;;;20.75;12.85;;;-3.10;99.90;;;;;;5049607;28;20116;-53
2022/12/15 08:20:42;;;;;;;23.63;14.67;;;-2.90;99.90;;;;;;5050922;28;20131;-51
2022/12/15 08:23:07;;;;;;;22.63;13.67;;;-2.80;99.90;;;;;;5049657;28;20076;-51
2022/12/15 08:25:33;;;;;;;26.37;13.27;;;-2.60;99.90;;;;;;5052676;28;20052;-53
2022/12/15 08:27:59;;;;;;;22.13;12.87;;;-2.40;99.90;;;;;;5052211;28;20052;-52
2022/12/15 08:30:25;;;;;;;20.25;13.15;;;-2.30;99.90;;;;;;5051739;28;20044;-51
2022/12/15 08:32:50;;;;;;;18.70;12.27;;;-2.20;99.90;;;;;;5051685;28;20044;-51
2022/12/15 08:35:16;;;;;;;17.98;13.20;;;-2.10;99.90;;;;;;5051834;28;20029;-52
2022/12/15 08:37:41;;;;;;;19.03;11.83;;;-2.00;99.90;;;;;;5050069;28;20040;-54
2022/12/15 08:40:08;;;;;;;18.00;12.30;;;-1.90;99.90;;;;;;5050724;28;20044;-55
2022/12/15 08:42:35;;;;;;;21.23;11.68;;;-1.90;99.90;;;;;;5044303;28;20041;-55
2022/12/15 08:45:00;;;;;;;22.48;11.80;;;-1.90;99.90;;;;;;5031527;28;20053;-51
2022/12/15 08:47:26;;;;;;;18.05;12.23;;;-2.00;99.90;;;;;;5046156;28;20048;-54
2022/12/15 08:49:53;;;;;;;17.67;10.77;;;-2.10;99.90;;;;;;5051759;28;20032;-55
2022/12/15 08:52:20;;;;;;;22.95;12.55;;;-2.20;99.90;;;;;;5051727;28;20051;-54
2022/12/15 08:54:46;;;;;;;22.23;12.52;;;-2.10;99.90;;;;;;5050926;28;20469;-55
2022/12/15 08:57:11;;;;;;;16.13;11.17;;;-1.90;99.90;;;;;;5051632;28;20033;-55
2022/12/15 08:59:37;;;;;;;20.90;10.80;;;-1.90;99.90;;;;;;5057399;28;20130;-55
2022/12/15 09:02:03;;;;;;;17.57;11.40;;;-1.80;99.90;;;;;;5051457;28;20044;-53
2022/12/15 09:04:28;;;;;;;17.00;10.90;;;-1.50;99.90;;;;;;5040104;28;20142;-54
2022/12/15 09:06:54;;;;;;;21.50;11.50;;;-1.20;99.90;;;;;;5031133;28;20507;-55
2022/12/15 09:09:19;;;;;;;18.73;11.90;;;-0.90;99.90;;;;;;5035470;28;20037;-55
2022/12/15 09:11:45;;;;;;;18.40;10.32;;;-0.60;99.90;;;;;;5051325;28;20032;-56
2022/12/15 09:14:11;;;;;;;16.20;11.30;;;-0.30;99.90;;;;;;5050363;28;20159;-51
2022/12/15 09:16:36;;;;;;;16.13;9.93;;;0.00;99.90;;;;;;5051549;28;20040;-56
2022/12/15 09:19:02;;;;;;;13.10;9.43;;;0.20;99.90;;;;;;5083550;28;20053;-55
2022/12/15 09:21:29;;;;;;;20.87;11.43;;;0.40;99.90;;;;;;5082684;28;20069;-56
2022/12/15 09:23:59;;;;;;;14.25;9.55;;;0.60;99.90;;;;;;5048690;28;20287;-55
2022/12/15 09:26:25;;;;;;;12.77;9.30;;;1.00;99.90;;;;;;5050175;28;20037;-55
2022/12/15 09:28:53;;;;;;;16.08;10.00;;;1.30;99.90;;;;;;5051283;28;20041;-57
2022/12/15 09:31:27;;;;;;;15.27;9.90;;;1.50;99.90;;;;;;5045956;28;20044;-53
2022/12/15 09:33:55;;;;;;;12.50;9.50;;;1.80;99.90;;;;;;5048457;28;20039;-54
2022/12/15 09:36:21;;;;;;;16.50;11.00;;;2.00;99.90;;;;;;5050146;28;20048;-53
2022/12/15 09:38:47;;;;;;;;;;;2.00;99.90;;;;;;5050944;28;20052;-50
2022/12/15 09:41:12;;;;;;;12.38;8.95;;;2.10;99.90;;;;;;5049905;28;19917;-56
2022/12/15 09:44:03;;;;;;;18.13;8.60;;;2.30;99.90;;;;;;5049628;28;20072;-51
2022/12/15 09:46:40;;;;;;;13.45;9.57;;;2.40;99.90;;;;;;5050261;28;20064;-50
2022/12/15 09:49:35;;;;;;;13.18;9.23;;;2.60;99.90;;;;;;5050613;28;20052;-51
2022/12/15 09:52:21;;;;;;;11.23;9.68;;;2.80;99.90;;;;;;5050372;28;20033;-50
2022/12/15 09:54:47;;;;;;;14.25;9.43;;;2.90;99.90;;;;;;5048450;28;20102;-51
2022/12/15 09:57:20;;;;;;;16.10;9.13;;;2.90;99.90;;;;;;5050693;28;20494;-50
2022/12/15 10:00:20;;;;;;;13.63;11.15;;;2.70;99.90;;;;;;5050430;28;20040;-50
2022/12/15 10:03:23;;;;;;;13.57;10.45;;;2.40;99.90;;;;;;5048300;28;20068;-50
2022/12/15 10:06:17;;;;;;;12.93;10.25;;;1.90;99.90;;;;;;5048697;28;20091;-50
2022/12/15 10:09:03;;;;;;;17.27;9.85;;;1.50;99.90;;;;;;5050090;28;20403;-49
2022/12/15 10:11:57;;;;;;;18.15;10.75;;;1.30;99.90;;;;;;5045556;28;20521;-49
2022/12/15 10:14:34;;;;;;;20.35;11.02;;;1.30;99.90;;;;;;5048300;28;20040;-49
2022/12/15 10:17:11;;;;;;;15.73;11.73;;;1.20;99.90;;;;;;5049281;28;20558;-49
2022/12/15 10:20:07;;;;;;;14.40;10.23;;;1.00;99.90;;;;;;5049731;28;20090;-50
2022/12/15 10:22:37;;;;;;;14.10;10.35;;;0.80;99.90;;;;;;5049902;28;20048;-49
2022/12/15 10:25:17;;;;;;;17.75;10.38;;;0.70;99.90;;;;;;5046894;28;20040;-49
2022/12/15 10:28:20;;;;;;;19.38;11.82;;;0.50;99.90;;;;;;5049059;28;20045;-49
2022/12/15 10:30:57;;;;;;;17.17;11.13;;;0.40;99.90;;;;;;5039451;28;20073;-49
2022/12/15 10:33:27;;;;;;;20.40;11.25;;;0.30;99.90;;;;;;5048791;28;20041;-48
2022/12/15 10:35:54;;;;;;;19.13;11.63;;;0.20;99.90;;;;;;5039787;28;20133;-51
2022/12/15 10:38:39;;;;;;;15.15;12.10;;;0.20;99.90;;;;;;5049430;28;20505;-51
2022/12/15 10:41:11;;;;;;;19.42;11.93;;;0.10;99.90;;;;;;5042677;28;20045;-50
2022/12/15 10:43:39;;;;;;;20.92;13.68;;;0.10;99.90;;;;;;5050243;28;20048;-50
2022/12/15 10:46:08;;;;;;;18.33;13.15;;;0.10;99.90;;;;;;5058833;28;20471;-49
2022/12/15 10:48:34;;;;;;;23.15;13.60;;;0.10;99.90;;;;;;5048587;28;20043;-49
2022/12/15 10:51:12;;;;;;;21.45;14.35;;;0.10;99.90;;;;;;5047145;28;20044;-51
2022/12/15 10:53:44;;;;;;;22.15;13.93;;;0.10;99.90;;;;;;5047097;28;20111;-51
2022/12/15 10:56:25;;;;;;;22.60;14.45;;;0.10;99.90;;;;;;5045774;28;20037;-48
2022/12/15 10:58:57;;;;;;;22.17;14.75;;;0.10;99.90;;;;;;5033766;28;20048;-50
2022/12/15 11:01:29;;;;;;;22.35;15.35;;;0.00;99.90;;;;;;5049117;28;20052;-53
2022/12/15 11:03:55;;;;;;;24.83;15.32;;;0.00;99.90;;;;;;5047833;28;20518;-49
2022/12/15 11:06:21;;;;;;;;;;;0.00;99.90;;;;;;5049706;28;20037;-52
2022/12/15 11:08:48;;;;;;;20.52;13.23;;;0.10;99.90;;;;;;5048191;28;19940;-53
2022/12/15 11:14:27;;;;;;;21.40;14.30;;;0.30;99.90;;;;;;5040061;28;20116;-53
2022/12/15 11:16:57;;;;;;;22.17;14.57;;;0.40;99.90;;;;;;5048930;28;20032;-53
2022/12/15 11:19:47;;;;;;;20.50;14.07;;;0.50;99.90;;;;;;5048235;28;20037;-52
2022/12/15 11:22:30;;;;;;;26.52;13.98;;;0.80;99.90;;;;;;5047712;28;20040;-52
2022/12/15 11:25:11;;;;;;;18.67;13.07;;;1.40;99.90;;;;;;5047814;28;20041;-50
2022/12/15 11:27:42;;;;;;;17.08;12.07;;;2.00;99.90;;;;;;5037680;28;20079;-50
2022/12/15 11:30:16;;;;;;;20.15;14.63;;;2.40;99.90;;;;;;5046759;28;20037;-49
2022/12/15 11:32:46;;;;;;;21.27;14.05;;;2.40;99.90;;;;;;5043318;28;20029;-49
2022/12/15 11:35:19;;;;;;;22.65;13.98;;;2.30;99.90;;;;;;5037877;28;20564;-49
2022/12/15 11:37:51;;;;;;;19.70;13.80;;;2.10;99.90;;;;;;5041302;28;20276;-50
2022/12/15 11:40:34;;;;;;;16.42;13.00;;;2.30;99.90;;;;;;5040748;28;20099;-49
2022/12/15 11:43:21;;;;;;;19.40;12.05;;;3.00;99.90;;;;;;5045332;28;20033;-53
2022/12/15 11:46:19;;;;;;;17.45;13.25;;;3.80;99.90;;;;;;5032280;28;20045;-51
2022/12/15 11:49:26;;;;;;;18.10;12.98;;;3.70;99.90;;;;;;5039631;28;20067;-50
2022/12/15 11:52:19;;;;;;;16.55;12.38;;;3.30;99.90;;;;;;5005129;28;20064;-50
2022/12/15 11:54:54;;;;;;;21.63;13.48;;;2.90;99.90;;;;;;5041442;28;20087;-49
2022/12/15 11:57:53;;;;;;;17.73;12.70;;;2.70;99.90;;;;;;5074931;28;20060;-52
2022/12/15 12:00:20;;;;;;;17.65;13.40;;;2.60;99.90;;;;;;5038353;28;20048;-50
2022/12/15 12:02:59;;;;;;;25.65;14.15;;;2.70;99.90;;;;;;5042418;28;20043;-49
2022/12/15 12:05:50;;;;;;;16.98;11.38;;;2.80;99.90;;;;;;5046101;28;20044;-49
2022/12/15 12:08:22;;;;;;;23.20;13.25;;;3.70;99.90;;;;;;5042225;28;20175;-53
2022/12/15 12:11:09;;;;;;;15.85;12.20;;;4.30;99.90;;;;;;5045007;28;20569;-51
2022/12/15 12:13:53;;;;;;;17.95;13.45;;;4.00;99.90;;;;;;5043708;28;20029;-50
2022/12/15 12:16:45;;;;;;;19.52;13.35;;;3.40;99.90;;;;;;5047534;28;20090;-49
2022/12/15 12:19:18;;;;;;;15.00;11.48;;;3.00;99.90;;;;;;5044910;28;20575;-52
2022/12/15 12:21:46;;;;;;;19.95;13.23;;;3.60;99.90;;;;;;5047000;28;20287;-53
2022/12/15 12:24:38;;;;;;;17.35;13.25;;;4.50;99.90;;;;;;5045520;28;20037;-50
2022/12/15 12:27:08;;;;;;;18.27;11.77;;;5.90;99.90;;;;;;5045985;28;20234;-53
2022/12/15 12:29:36;;;;;;;18.00;11.98;;;7.00;99.90;;;;;;5050602;28;20047;-55
2022/12/15 12:32:22;;;;;;;18.90;13.90;;;8.00;99.90;;;;;;5051185;28;20048;-54
2022/12/15 12:35:11;;;;;;;18.35;12.27;;;8.60;99.70;;;;;;5049840;28;20571;-54
2022/12/15 12:37:51;;;;;;;17.38;12.38;;;8.50;98.00;;;;;;5049755;28;20037;-53
2022/12/15 12:40:30;;;;;;;21.88;13.25;;;7.90;97.40;;;;;;5050978;28;20104;-54
2022/12/15 12:42:57;;;;;;;18.90;13.55;;;8.00;98.10;;;;;;5049894;28;20033;-54
2022/12/15 12:45:43;;;;;;;16.67;13.07;;;8.60;97.40;;;;;;5050232;28;20418;-54
2022/12/15 12:48:16;;;;;;;17.23;12.32;;;9.20;96.30;;;;;;5050697;28;20099;-53
2022/12/15 12:50:41;;;;;;;16.38;12.18;;;9.70;95.10;;;;;;5049679;28;20102;-55
2022/12/15 12:53:26;;;;;;;26.50;13.83;;;10.10;94.50;;;;;;5048650;28;20045;-53
2022/12/15 12:55:52;;;;;;;13.88;12.15;;;10.10;93.80;;;;;;5049579;28;20053;-54
2022/12/15 12:58:40;;;;;;;19.55;13.27;;;9.30;92.40;;;;;;5050211;28;20087;-54
2022/12/15 13:01:29;;;;;;;14.95;12.18;;;8.10;92.90;;;;;;5050218;28;20445;-54
2022/12/15 13:04:37;;;;;;;16.65;13.43;;;7.80;94.10;;;;;;5039593;28;20095;-50
2022/12/15 13:07:24;;;;;;;18.58;14.05;;;7.30;94.10;;;;;;5049827;28;20095;-50
2022/12/15 13:10:03;;;;;;;16.50;13.38;;;6.50;94.70;;;;;;5048888;28;20045;-51
2022/12/15 13:12:46;;;;;;;17.58;13.32;;;5.60;96.30;;;;;;5051423;28;20134;-51
2022/12/15 13:15:28;;;;;;;21.75;15.02;;;5.20;98.20;;;;;;5049709;28;20490;-51
2022/12/15 13:18:03;;;;;;;20.92;13.38;;;5.20;99.90;;;;;;5047443;28;20049;-51
2022/12/15 13:20:31;;;;;;;19.48;14.27;;;5.90;99.50;;;;;;5051401;28;20040;-55
2022/12/15 13:23:22;;;;;;;16.70;12.73;;;6.60;98.90;;;;;;5049924;28;20025;-51
2022/12/15 13:25:56;;;;;;;22.02;14.07;;;7.30;97.30;;;;;;5051115;28;20037;-52
2022/12/15 13:28:27;;;;;;;22.48;14.90;;;7.70;96.90;;;;;;5050003;28;20035;-52
2022/12/15 13:31:12;;;;;;;17.88;13.52;;;8.00;95.80;;;;;;5051073;28;20041;-51
2022/12/15 13:33:51;;;;;;;19.73;14.32;;;8.00;95.20;;;;;;5049728;28;20506;-50
2022/12/15 13:36:36;;;;;;;21.95;15.32;;;7.60;94.50;;;;;;5051289;28;20140;-53
2022/12/15 13:39:11;;;;;;;17.77;14.02;;;6.60;94.90;;;;;;5049683;28;20059;-51
2022/12/15 13:41:40;;;;;;;16.50;13.27;;;5.70;96.10;;;;;;5050854;28;20124;-50
2022/12/15 13:44:45;;;;;;;22.40;16.27;;;5.40;97.70;;;;;;5049513;28;20041;-50
2022/12/15 13:47:30;;;;;;;19.85;14.70;;;5.10;98.10;;;;;;5033594;28;20060;-50
2022/12/15 13:50:11;;;;;;;20.73;15.95;;;4.40;99.30;;;;;;5050305;28;20052;-50
2022/12/15 13:52:53;;;;;;;21.63;15.88;;;3.80;99.90;;;;;;5034635;28;20040;-50
2022/12/15 13:55:24;;;;;;;24.02;16.80;;;3.30;99.90;;;;;;5045407;28;20033;-50
2022/12/15 13:58:13;;;;;;;25.48;18.30;;;2.90;99.90;;;;;;5050034;28;20049;-50
2022/12/15 14:00:49;;;;;;;28.55;17.35;;;2.60;99.90;;;;;;5047721;28;20520;-52
2022/12/15 14:03:14;;;;;;;26.35;16.90;;;2.40;99.90;;;;;;5050209;28;20121;-49
2022/12/15 14:05:56;;;;;;;25.23;18.03;;;2.30;99.90;;;;;;5050588;28;20124;-51
2022/12/15 14:08:25;;;;;;;25.67;18.35;;;2.20;99.90;;;;;;5050436;28;20044;-53
2022/12/15 14:10:53;;;;;;;25.98;18.83;;;2.30;99.90;;;;;;5050622;28;20055;-52
2022/12/15 14:13:28;;;;;;;28.85;18.55;;;2.40;99.90;;;;;;5049835;28;20029;-53
2022/12/15 14:16:06;;;;;;;23.63;17.17;;;2.70;99.90;;;;;;5049753;28;20549;-50
2022/12/15 14:18:34;;;;;;;28.45;18.77;;;2.70;99.90;;;;;;5049322;28;20033;-50
2022/12/15 14:21:04;;;;;;;26.63;18.40;;;2.60;99.90;;;;;;5049037;28;20072;-53
2022/12/15 14:23:40;;;;;;;27.13;18.92;;;2.40;99.90;;;;;;5047796;28;20106;-54
2022/12/15 14:26:11;;;;;;;22.17;17.08;;;2.30;99.90;;;;;;5049625;28;20406;-51
2022/12/15 14:28:40;;;;;;;25.17;18.58;;;2.20;99.90;;;;;;5048910;28;20521;-51
2022/12/15 14:31:21;;;;;;;27.70;20.30;;;2.10;99.90;;;;;;5049013;28;20044;-51
2022/12/15 14:33:49;;;;;;;24.63;18.35;;;2.10;99.90;;;;;;5049098;28;20048;-52
2022/12/15 14:36:17;;;;;;;29.38;19.42;;;2.00;99.90;;;;;;5049697;28;20040;-54
2022/12/15 14:38:56;;;;;;;27.58;19.42;;;2.00;99.90;;;;;;5049641;28;20041;-54
2022/12/15 14:41:33;;;;;;;29.40;18.17;;;1.90;99.90;;;;;;5048734;28;20083;-54
2022/12/15 14:44:04;;;;;;;31.35;19.50;;;1.80;99.90;;;;;;5049014;28;20072;-54
2022/12/15 14:46:30;;;;;;;28.60;19.55;;;1.70;99.90;;;;;;5081774;28;20382;-54
2022/12/15 14:49:05;;;;;;;30.42;19.67;;;1.60;99.90;;;;;;5049348;28;20115;-53
2022/12/15 14:51:39;;;;;;;24.20;19.35;;;1.50;99.90;;;;;;5049484;28;20041;-49
2022/12/15 14:54:05;;;;;;;33.22;20.20;;;1.40;99.90;;;;;;5048383;28;20063;-50
2022/12/15 14:56:31;;;;;;;29.13;20.03;;;1.30;99.90;;;;;;5043269;28;20028;-51
2022/12/15 14:59:17;;;;;;;28.53;19.77;;;1.30;99.90;;;;;;5048340;28;20124;-50
2022/12/15 15:02:08;;;;;;;29.35;20.00;;;1.20;99.90;;;;;;5048840;28;20498;-49
2022/12/15 15:04:34;;;;;;;32.60;19.73;;;1.20;99.90;;;;;;5048556;28;20039;-49
2022/12/15 15:07:03;;;;;;;32.90;21.47;;;1.20;99.90;;;;;;5043110;28;20044;-52
2022/12/15 15:09:32;;;;;;;33.22;21.73;;;1.10;99.90;;;;;;5049512;28;20049;-51
2022/12/15 15:12:04;;;;;;;32.25;20.38;;;1.00;99.90;;;;;;5047920;28;20029;-53
2022/12/15 15:14:39;;;;;;;34.92;23.17;;;1.00;99.90;;;;;;5047220;28;20036;-51
2022/12/15 15:17:22;;;;;;;32.00;22.77;;;0.90;99.90;;;;;;5048379;28;20056;-53
2022/12/15 15:19:57;;;;;;;33.13;22.77;;;0.90;99.90;;;;;;5080594;28;20045;-51